createdAt,value
2022-09-30T00:01:52.635Z,8.30
2022-09-30T00:04:22.275Z,8.20
2022-09-30T00:06:54.451Z,8.20
2022-09-30T00:09:25.279Z,8.20
2022-09-30T00:11:52.076Z,8.20
2022-09-30T00:14:25.701Z,8.20
2022-09-30T00:16:52.347Z,8.20
2022-09-30T00:19:24.939Z,8.20
2022-09-30T00:52:13.070Z,8.50
2022-09-30T00:54:42.058Z,8.60
2022-09-30T00:57:11.277Z,8.60
2022-09-30T00:59:47.027Z,8.60
2022-09-30T01:02:14.881Z,8.50
2022-09-30T01:04:43.343Z,8.50
2022-09-30T01:07:11.000Z,8.40
2022-09-30T01:09:40.854Z,8.50
2022-09-30T01:12:13.425Z,8.40
2022-09-30T01:14:44.871Z,8.40
2022-09-30T01:17:21.816Z,8.40
2022-09-30T01:19:51.425Z,8.50
2022-09-30T01:22:26.981Z,8.40
2022-09-30T01:25:09.531Z,8.40
2022-09-30T01:28:03.159Z,8.40
2022-09-30T01:31:04.174Z,8.30
2022-09-30T01:33:56.629Z,8.30
2022-09-30T01:36:41.025Z,8.30
2022-09-30T01:39:19.482Z,8.20
2022-09-30T01:42:13.061Z,8.20
2022-09-30T01:45:11.231Z,8.10
2022-09-30T01:47:37.917Z,8.20
2022-09-30T01:50:36.163Z,8.20
2022-09-30T01:53:42.351Z,8.20
2022-09-30T01:56:23.935Z,8.20
2022-09-30T01:58:56.859Z,8.20
2022-09-30T02:01:31.570Z,8.20
2022-09-30T02:04:04.910Z,8.30
2022-09-30T02:06:41.752Z,8.20
2022-09-30T02:09:22.232Z,8.30
2022-09-30T02:11:55.586Z,8.20
2022-09-30T02:14:28.437Z,8.30
2022-09-30T02:17:05.349Z,8.20
2022-09-30T02:19:37.315Z,8.20
2022-09-30T02:22:10.987Z,8.20
2022-09-30T02:24:38.754Z,8.20
2022-09-30T02:27:12.259Z,8.20
2022-09-30T02:29:49.035Z,8.20
2022-09-30T02:32:29.163Z,8.20
2022-09-30T02:35:19.917Z,8.20
2022-09-30T02:37:53.316Z,8.20
2022-09-30T02:40:38.652Z,8.30
2022-09-30T02:43:08.842Z,8.30
2022-09-30T02:46:03.473Z,8.30
2022-09-30T02:49:16.749Z,8.40
2022-09-30T02:52:03.315Z,8.40
2022-09-30T02:55:07.624Z,8.40
2022-09-30T02:57:41.925Z,8.40
2022-09-30T03:00:12.786Z,8.50
2022-09-30T03:02:40.949Z,8.50
2022-09-30T03:05:10.738Z,8.50
2022-09-30T03:07:39.665Z,8.60
2022-09-30T03:10:12.943Z,8.60
2022-09-30T03:12:51.534Z,8.50
2022-09-30T03:15:30.152Z,8.40
2022-09-30T03:18:32.414Z,8.40
2022-09-30T03:21:42.035Z,8.30
2022-09-30T03:24:46.312Z,8.30
2022-09-30T03:27:13.930Z,8.20
2022-09-30T03:30:09.100Z,8.20
2022-09-30T03:32:48.851Z,8.20
2022-09-30T03:35:28.141Z,8.20
2022-09-30T03:38:13.233Z,8.20
2022-09-30T03:40:58.125Z,8.20
2022-09-30T03:43:36.257Z,8.10
2022-09-30T03:46:08.029Z,8.20
2022-09-30T03:48:38.858Z,8.10
2022-09-30T03:51:08.153Z,8.10
2022-09-30T03:53:42.993Z,8.20
2022-09-30T03:56:17.059Z,8.10
2022-09-30T03:58:43.989Z,8.20
2022-09-30T04:01:20.579Z,8.10
2022-09-30T04:03:53.017Z,8.10
2022-09-30T04:06:22.631Z,8.20
2022-09-30T04:08:53.193Z,8.20
2022-09-30T04:11:24.089Z,8.20
2022-09-30T04:13:57.058Z,8.20
2022-09-30T04:16:25.316Z,8.20
2022-09-30T04:18:59.533Z,8.20
2022-09-30T04:21:28.419Z,8.20
2022-09-30T04:23:55.849Z,8.20
2022-09-30T04:26:33.603Z,8.20
2022-09-30T04:29:01.551Z,8.30
2022-09-30T04:31:31.275Z,8.40
2022-09-30T04:33:58.094Z,8.40
2022-09-30T04:36:26.134Z,8.40
2022-09-30T04:38:57.229Z,8.50
2022-09-30T04:41:24.347Z,8.50
2022-09-30T04:43:51.044Z,8.60
2022-09-30T04:46:20.020Z,8.60
2022-09-30T04:48:52.916Z,8.60
2022-09-30T04:51:22.127Z,8.60
2022-09-30T04:53:49.158Z,8.60
2022-09-30T04:56:16.320Z,8.60
2022-09-30T04:58:53.772Z,8.70
2022-09-30T05:01:20.983Z,8.70
2022-09-30T05:03:48.297Z,8.80
2022-09-30T05:06:15.240Z,8.80
2022-09-30T05:08:46.837Z,8.90
2022-09-30T05:11:18.750Z,8.90
2022-09-30T05:13:49.215Z,8.90
2022-09-30T05:16:17.398Z,8.90
2022-09-30T05:18:48.733Z,8.90
2022-09-30T05:21:23.174Z,8.90
2022-09-30T05:23:49.738Z,9.00
2022-09-30T05:26:17.243Z,9.00
2022-09-30T05:28:43.850Z,8.90
2022-09-30T05:31:11.417Z,8.90
2022-09-30T05:33:38.612Z,8.90
2022-09-30T05:36:11.208Z,8.90
2022-09-30T05:38:37.818Z,8.90
2022-09-30T05:41:10.624Z,8.90
2022-09-30T05:43:40.500Z,8.90
2022-09-30T05:46:07.624Z,8.90
2022-09-30T05:48:36.529Z,8.90
2022-09-30T05:51:08.939Z,8.80
2022-09-30T05:53:41.472Z,8.80
2022-09-30T05:56:11.237Z,8.70
2022-09-30T05:58:40.609Z,8.70
2022-09-30T06:01:13.541Z,8.70
2022-09-30T06:03:47.221Z,8.70
2022-09-30T06:06:24.472Z,8.70
2022-09-30T06:08:51.595Z,8.70
2022-09-30T06:11:25.534Z,8.70
2022-09-30T06:14:00.294Z,8.70
2022-09-30T06:16:31.352Z,8.70
2022-09-30T06:18:59.214Z,8.80
2022-09-30T06:21:26.443Z,8.80
2022-09-30T06:23:53.954Z,8.80
2022-09-30T06:26:20.567Z,8.90
2022-09-30T06:28:47.431Z,8.90
2022-09-30T06:31:23.042Z,8.90
2022-09-30T06:33:52.485Z,9.00
2022-09-30T06:36:19.167Z,9.00
2022-09-30T06:38:53.636Z,9.10
2022-09-30T06:44:27.477Z,9.10
2022-09-30T06:46:56.475Z,9.20
2022-09-30T06:49:26.961Z,9.30
2022-09-30T06:51:55.348Z,9.30
2022-09-30T06:54:22.490Z,9.40
2022-09-30T06:56:53.148Z,9.40
2022-09-30T06:59:23.052Z,9.50
2022-09-30T07:01:57.526Z,9.60
2022-09-30T07:04:24.318Z,9.60
2022-09-30T07:06:51.025Z,9.70
2022-09-30T07:09:19.734Z,9.60
2022-09-30T07:11:47.480Z,9.60
2022-09-30T07:14:17.115Z,9.50
2022-09-30T07:16:45.958Z,9.50
2022-09-30T07:19:13.875Z,9.40
2022-09-30T07:21:42.800Z,9.40
2022-09-30T07:24:09.506Z,9.40
2022-09-30T07:26:36.406Z,9.40
2022-09-30T07:33:05.194Z,9.50
2022-09-30T07:35:52.428Z,9.50
2022-09-30T07:39:22.865Z,9.60
2022-09-30T07:42:05.024Z,9.80
2022-09-30T07:44:32.042Z,9.90
2022-09-30T07:47:00.845Z,9.90
2022-09-30T07:49:40.415Z,10.00
2022-09-30T07:52:14.422Z,10.10
2022-09-30T07:54:49.553Z,10.20
2022-09-30T07:57:18.459Z,10.40
2022-09-30T07:59:45.143Z,10.50
2022-09-30T08:02:17.659Z,10.70
2022-09-30T08:04:47.090Z,10.90
2022-09-30T08:07:19.406Z,11.10
2022-09-30T08:09:46.238Z,11.30
2022-09-30T08:12:12.986Z,11.50
2022-09-30T08:14:40.907Z,11.60
2022-09-30T08:17:07.687Z,11.50
2022-09-30T08:19:43.429Z,11.40
2022-09-30T08:22:12.387Z,11.30
2022-09-30T08:24:39.217Z,11.40
2022-09-30T08:27:06.672Z,11.40
2022-09-30T08:29:53.722Z,11.60
2022-09-30T08:32:21.407Z,11.70
2022-09-30T08:34:48.034Z,11.90
2022-09-30T08:37:19.668Z,12.00
2022-09-30T08:39:47.656Z,12.10
2022-09-30T08:42:50.538Z,12.30
2022-09-30T08:45:42.927Z,12.40
2022-09-30T08:48:24.814Z,12.50
2022-09-30T08:51:16.039Z,12.50
2022-09-30T08:53:46.881Z,12.60
2022-09-30T08:56:37.072Z,12.60
2022-09-30T08:59:29.676Z,12.50
2022-09-30T09:02:04.357Z,12.50
2022-09-30T09:07:21.548Z,12.50
2022-09-30T09:10:11.146Z,12.50
2022-09-30T09:13:15.392Z,12.50
2022-09-30T09:15:55.555Z,12.50
2022-09-30T09:18:27.414Z,12.40
2022-09-30T09:21:26.388Z,12.50
2022-09-30T09:24:29.707Z,12.50
2022-09-30T09:26:58.654Z,12.60
2022-09-30T09:29:49.992Z,12.70
2022-09-30T09:32:17.887Z,12.70
2022-09-30T09:34:50.934Z,12.80
2022-09-30T09:37:47.170Z,12.90
2022-09-30T09:40:34.967Z,13.10
2022-09-30T09:43:18.475Z,13.30
2022-09-30T09:46:18.616Z,13.40
2022-09-30T09:48:46.151Z,13.70
2022-09-30T09:51:31.574Z,14.10
2022-09-30T09:54:00.957Z,14.30
2022-09-30T09:56:32.507Z,14.30
2022-09-30T09:59:19.833Z,14.30
2022-09-30T10:01:53.302Z,14.30
2022-09-30T10:04:25.711Z,14.60
2022-09-30T10:06:59.663Z,14.90
2022-09-30T10:09:35.130Z,15.20
2022-09-30T10:12:09.651Z,15.40
2022-09-30T10:14:47.156Z,15.70
2022-09-30T10:17:37.668Z,15.90
2022-09-30T10:20:29.414Z,16.20
2022-09-30T10:23:18.877Z,16.40
2022-09-30T10:26:03.016Z,16.50
2022-09-30T10:28:45.820Z,16.60
2022-09-30T10:31:24.986Z,16.40
2022-09-30T10:34:14.552Z,16.30
2022-09-30T10:36:45.118Z,16.50
2022-09-30T10:39:32.272Z,16.60
2022-09-30T10:42:03.956Z,16.70
2022-09-30T10:44:43.949Z,16.90
2022-09-30T10:47:15.767Z,17.10
2022-09-30T10:50:08.774Z,17.30
2022-09-30T10:52:40.675Z,17.20
2022-09-30T10:55:21.376Z,17.00
2022-09-30T10:57:56.218Z,16.80
2022-09-30T11:00:27.151Z,16.70
2022-09-30T11:03:32.152Z,16.70
2022-09-30T11:06:00.086Z,16.70
2022-09-30T11:08:50.743Z,16.60
2022-09-30T11:11:48.689Z,16.80
2022-09-30T11:14:39.193Z,17.20
2022-09-30T11:17:23.454Z,17.40
2022-09-30T11:20:14.068Z,17.60
2022-09-30T11:23:01.895Z,17.70
2022-09-30T11:25:56.510Z,17.70
2022-09-30T11:28:47.136Z,17.70
2022-09-30T11:31:30.414Z,17.80
2022-09-30T11:34:05.171Z,18.00
2022-09-30T11:36:50.432Z,17.80
2022-09-30T11:39:36.046Z,17.70
2022-09-30T11:42:17.740Z,17.80
2022-09-30T11:45:01.503Z,17.80
2022-09-30T11:47:46.008Z,17.70
2022-09-30T11:50:49.499Z,17.50
2022-09-30T11:53:38.920Z,17.70
2022-09-30T11:56:27.630Z,17.80
2022-09-30T11:58:59.202Z,18.00
2022-09-30T12:01:40.683Z,18.10
2022-09-30T12:04:36.258Z,18.20
2022-09-30T12:07:13.506Z,18.20
2022-09-30T12:09:50.898Z,18.20
2022-09-30T12:12:22.126Z,18.10
2022-09-30T12:15:00.410Z,17.90
2022-09-30T12:17:32.775Z,17.90
2022-09-30T12:20:19.850Z,17.90
2022-09-30T12:22:47.203Z,17.90
2022-09-30T12:25:22.994Z,18.10
2022-09-30T12:28:32.358Z,18.50
2022-09-30T12:31:27.478Z,18.80
2022-09-30T12:34:31.741Z,18.80
2022-09-30T12:37:19.985Z,18.10
2022-09-30T12:40:10.558Z,18.00
2022-09-30T12:43:09.902Z,18.10
2022-09-30T12:46:03.910Z,18.50
2022-09-30T12:48:46.059Z,18.80
2022-09-30T12:51:32.905Z,18.60
2022-09-30T12:54:12.819Z,18.40
2022-09-30T12:56:44.222Z,18.20
2022-09-30T12:59:12.564Z,18.20
2022-09-30T13:01:41.548Z,18.20
2022-09-30T13:04:08.113Z,18.20
2022-09-30T13:06:46.332Z,18.40
2022-09-30T13:09:30.095Z,18.70
2022-09-30T13:11:57.196Z,18.90
2022-09-30T13:38:40.133Z,18.60
2022-09-30T13:41:24.187Z,18.60
2022-09-30T13:44:01.755Z,18.60
2022-09-30T13:46:42.834Z,18.50
2022-09-30T13:49:24.958Z,18.50
2022-09-30T13:51:54.173Z,18.50
2022-09-30T13:54:30.373Z,18.50
2022-09-30T13:56:58.992Z,18.40
2022-09-30T13:59:49.037Z,18.40
2022-09-30T14:02:41.144Z,18.20
2022-09-30T14:05:34.424Z,18.20
2022-09-30T14:08:42.493Z,18.20
2022-09-30T14:15:02.740Z,19.00
2022-09-30T14:17:58.008Z,19.00
2022-09-30T14:20:47.621Z,18.90
2022-09-30T14:23:16.394Z,18.80
2022-09-30T14:26:06.515Z,18.50
2022-09-30T14:32:19.992Z,18.10
2022-09-30T14:34:51.395Z,18.10
2022-09-30T14:37:32.051Z,17.90
2022-09-30T14:40:02.111Z,17.80
2022-09-30T14:42:32.354Z,17.80
2022-09-30T14:45:03.754Z,17.80
2022-09-30T14:47:37.974Z,17.90
2022-09-30T14:50:16.709Z,17.90
2022-09-30T14:52:48.159Z,17.90
2022-09-30T14:55:41.211Z,17.90
2022-09-30T14:58:33.232Z,17.80
2022-09-30T15:01:02.943Z,17.70
2022-09-30T15:03:34.662Z,17.80
2022-09-30T15:06:05.945Z,17.80
2022-09-30T15:09:03.143Z,17.90
2022-09-30T15:11:33.086Z,17.80
2022-09-30T15:14:23.908Z,17.80
2022-09-30T15:16:56.523Z,17.80
2022-09-30T15:19:26.350Z,17.80
2022-09-30T15:22:01.685Z,17.70
2022-09-30T15:24:32.557Z,17.60
2022-09-30T15:27:03.226Z,17.50
2022-09-30T15:29:33.538Z,17.30
2022-09-30T15:32:14.507Z,17.20
2022-09-30T15:34:45.275Z,17.10
2022-09-30T15:37:23.023Z,17.10
2022-09-30T15:40:12.021Z,17.10
2022-09-30T15:43:02.087Z,17.00
2022-09-30T15:45:42.596Z,16.90
2022-09-30T15:48:25.863Z,16.80
2022-09-30T15:51:00.587Z,16.70
2022-09-30T15:53:30.275Z,16.70
2022-09-30T15:56:15.241Z,16.60
2022-09-30T15:59:15.175Z,16.60
2022-09-30T16:01:46.206Z,16.70
2022-09-30T16:04:18.152Z,16.70
2022-09-30T16:06:55.493Z,16.70
2022-09-30T16:09:34.317Z,16.70
2022-09-30T16:12:17.187Z,16.70
2022-09-30T16:14:55.361Z,16.70
2022-09-30T16:17:27.749Z,16.70
2022-09-30T16:19:59.961Z,16.50
2022-09-30T16:22:45.463Z,16.50
2022-09-30T16:25:29.233Z,16.40
2022-09-30T16:28:13.440Z,16.40
2022-09-30T16:30:51.828Z,16.40
2022-09-30T16:33:23.376Z,16.40
2022-09-30T16:35:50.005Z,16.40
2022-09-30T16:38:17.936Z,16.30
2022-09-30T16:40:47.138Z,16.20
2022-09-30T16:43:16.374Z,16.00
2022-09-30T16:45:43.079Z,16.00
2022-09-30T16:48:21.227Z,15.80
2022-09-30T16:51:04.191Z,15.70
2022-09-30T16:53:31.194Z,15.60
2022-09-30T16:55:59.116Z,15.50
2022-09-30T16:58:26.035Z,15.40
2022-09-30T17:01:17.996Z,15.20
2022-09-30T17:03:45.790Z,15.10
2022-09-30T17:06:14.412Z,15.00
2022-09-30T17:08:44.617Z,14.90
2022-09-30T17:11:11.322Z,14.70
2022-09-30T17:13:38.076Z,14.60
2022-09-30T17:16:04.896Z,14.40
2022-09-30T17:18:59.433Z,14.30
2022-09-30T17:21:27.051Z,14.10
2022-09-30T17:23:55.070Z,14.10
2022-09-30T17:26:25.298Z,14.00
2022-09-30T17:28:53.500Z,14.00
2022-09-30T17:31:20.486Z,14.10
2022-09-30T17:33:47.310Z,14.10
2022-09-30T17:36:14.533Z,14.10
2022-09-30T17:38:41.326Z,14.10
2022-09-30T17:41:37.542Z,14.20
2022-09-30T17:44:12.538Z,14.20
2022-09-30T17:46:42.338Z,14.20
2022-09-30T17:49:12.206Z,14.10
2022-09-30T17:51:39.180Z,14.00
2022-09-30T17:54:06.620Z,13.80
2022-09-30T17:56:37.078Z,13.60
2022-09-30T17:59:06.277Z,13.30
2022-09-30T18:01:33.236Z,13.10
2022-09-30T18:04:11.492Z,12.90
2022-09-30T18:06:40.492Z,12.90
2022-09-30T18:09:07.178Z,12.90
2022-09-30T18:11:42.782Z,12.90
2022-09-30T18:14:12.046Z,12.90
2022-09-30T18:16:38.680Z,12.90
2022-09-30T18:19:11.647Z,12.80
2022-09-30T18:21:42.454Z,12.80
2022-09-30T18:24:09.928Z,12.70
2022-09-30T18:26:36.511Z,12.60
2022-09-30T18:29:06.971Z,12.40
2022-09-30T18:31:36.082Z,12.30
2022-09-30T18:34:04.384Z,12.30
2022-09-30T18:36:36.830Z,12.30
2022-09-30T18:39:03.615Z,12.20
2022-09-30T18:41:32.579Z,12.20
2022-09-30T18:44:03.218Z,12.10
2022-09-30T18:46:37.196Z,12.00
2022-09-30T18:49:12.820Z,12.00
2022-09-30T18:51:39.730Z,11.90
2022-09-30T18:54:12.507Z,11.90
2022-09-30T18:56:39.290Z,12.00
2022-09-30T18:59:13.523Z,11.90
2022-09-30T19:02:05.084Z,11.80
2022-09-30T19:04:31.773Z,11.80
2022-09-30T19:06:58.444Z,11.80
2022-09-30T19:09:27.647Z,11.80
2022-09-30T19:11:54.893Z,11.80
2022-09-30T19:14:22.968Z,11.70
2022-09-30T19:16:51.100Z,11.60
2022-09-30T19:19:24.576Z,11.50
2022-09-30T19:21:55.569Z,11.40
2022-09-30T19:24:27.245Z,11.30
2022-09-30T19:26:56.519Z,11.10
2022-09-30T19:29:25.095Z,11.00
2022-09-30T19:31:53.714Z,11.00
2022-09-30T19:34:30.422Z,10.90
2022-09-30T19:37:05.024Z,11.00
2022-09-30T19:39:44.589Z,10.90
2022-09-30T19:42:19.507Z,11.00
2022-09-30T19:44:51.161Z,10.90
2022-09-30T19:47:18.154Z,10.80
2022-09-30T19:49:48.701Z,10.80
2022-09-30T19:52:22.167Z,10.80
2022-09-30T19:54:54.121Z,10.90
2022-09-30T19:57:23.239Z,10.80
2022-09-30T19:59:50.983Z,10.80
2022-09-30T20:02:21.463Z,10.80
2022-09-30T20:04:52.143Z,10.80
2022-09-30T20:07:44.354Z,10.80
2022-09-30T20:10:12.303Z,10.70
2022-09-30T20:12:39.116Z,10.70
2022-09-30T20:15:24.951Z,10.70
2022-09-30T20:17:54.132Z,10.60
2022-09-30T20:20:46.572Z,10.50
2022-09-30T20:23:13.973Z,10.50
2022-09-30T20:25:43.948Z,10.40
2022-09-30T20:28:13.370Z,10.40
2022-09-30T20:30:47.189Z,10.40
2022-09-30T20:33:26.240Z,10.40
2022-09-30T20:35:54.108Z,10.40
2022-09-30T20:38:27.599Z,10.40
2022-09-30T20:40:58.707Z,10.30
2022-09-30T20:43:30.408Z,10.30
2022-09-30T20:46:00.587Z,10.20
2022-09-30T20:48:34.137Z,10.20
2022-09-30T20:51:16.995Z,10.10
2022-09-30T20:53:49.145Z,10.10
2022-09-30T20:56:16.186Z,10.10
2022-09-30T21:01:43.883Z,10.10
2022-09-30T21:04:10.639Z,10.10
2022-09-30T21:06:37.211Z,10.10
2022-09-30T21:09:08.705Z,10.10
2022-09-30T21:11:40.298Z,10.10
2022-09-30T21:14:07.159Z,10.10
2022-09-30T21:16:33.937Z,10.10
2022-09-30T21:19:00.731Z,10.10
2022-09-30T21:21:29.891Z,10.10
2022-09-30T21:23:59.979Z,10.00
2022-09-30T21:26:27.410Z,10.00
2022-09-30T21:28:54.245Z,10.00
2022-09-30T21:31:24.092Z,10.00
2022-09-30T21:33:52.634Z,10.00
2022-09-30T21:36:22.398Z,9.90
2022-09-30T21:38:51.680Z,9.90
2022-09-30T21:44:34.718Z,9.80
2022-09-30T21:47:02.681Z,9.80
2022-09-30T21:49:29.357Z,9.80
2022-09-30T21:51:56.716Z,9.70
2022-09-30T21:54:28.123Z,9.70
2022-09-30T21:56:54.785Z,9.70
2022-09-30T21:59:24.663Z,9.60
2022-09-30T22:01:53.514Z,9.60
2022-09-30T22:04:23.366Z,9.60
2022-09-30T22:06:51.717Z,9.60
2022-09-30T22:09:18.273Z,9.60
2022-09-30T22:12:09.617Z,9.60
2022-09-30T22:14:38.751Z,9.60
2022-09-30T22:17:09.040Z,9.60
2022-09-30T22:19:39.937Z,9.60
2022-09-30T22:22:08.436Z,9.60
2022-09-30T22:24:38.184Z,9.60
2022-09-30T22:27:07.665Z,9.60
2022-09-30T22:29:34.780Z,9.60
2022-09-30T22:32:04.020Z,9.60
2022-09-30T22:35:01.170Z,9.60
2022-09-30T22:37:49.570Z,9.60
2022-09-30T22:40:16.164Z,9.50
2022-09-30T22:42:45.500Z,9.40
2022-09-30T22:45:12.221Z,9.40
2022-09-30T22:47:42.826Z,9.40
2022-09-30T22:50:09.644Z,9.30
2022-09-30T22:52:36.203Z,9.30
2022-09-30T22:55:07.916Z,9.30
2022-09-30T22:57:34.643Z,9.20
2022-09-30T23:00:05.544Z,9.20
2022-09-30T23:02:32.256Z,9.10
2022-09-30T23:05:00.922Z,9.00
2022-09-30T23:07:28.763Z,9.00
2022-09-30T23:09:55.638Z,8.90
2022-09-30T23:12:22.950Z,9.00
2022-09-30T23:14:50.382Z,8.90
2022-09-30T23:17:20.827Z,8.90
2022-09-30T23:19:52.539Z,8.90
2022-09-30T23:22:19.241Z,8.90
2022-09-30T23:24:46.045Z,8.90
2022-09-30T23:27:19.385Z,8.80
2022-09-30T23:29:45.938Z,8.80
2022-09-30T23:32:12.722Z,8.80
2022-09-30T23:34:39.817Z,8.70
2022-09-30T23:37:06.353Z,8.70
2022-09-30T23:39:43.851Z,8.70
2022-09-30T23:42:10.491Z,8.60
2022-09-30T23:44:37.088Z,8.60
2022-09-30T23:47:20.671Z,8.60
2022-09-30T23:49:52.119Z,8.50
2022-09-30T23:58:11.154Z,8.40
